Time;durP1;ratioP1;P1;durP2;ratioP2;P2;SDS_P1;SDS_P2;PMS_P1;PMS_P2;Temp;Humidity;BMP_temperature;BMP_pressure;BME280_temperature;BME280_humidity;BME280_pressure;Samples;Min_cycle;Max_cycle;Signal;HPM_P1;HPM_P2
2021/08/14 00:02:02;;;;;;;10.30;5.20;;;20.40;66.70;;;;;;5074363;28;20444;-76
2021/08/14 00:04:29;;;;;;;5.70;5.05;;;20.30;66.80;;;;;;5073675;28;20947;-76
2021/08/14 00:06:56;;;;;;;6.17;5.50;;;20.30;66.80;;;;;;5074263;28;20253;-76
2021/08/14 00:09:24;;;;;;;9.00;6.20;;;20.30;66.80;;;;;;5073943;28;20815;-76
2021/08/14 00:11:50;;;;;;;9.10;6.00;;;20.20;67.00;;;;;;5074768;28;20444;-76
2021/08/14 00:14:17;;;;;;;14.67;6.17;;;20.20;67.10;;;;;;5074331;28;20436;-76
2021/08/14 00:16:44;;;;;;;7.60;6.30;;;20.20;67.20;;;;;;5073685;28;20978;-76
2021/08/14 00:19:11;;;;;;;10.63;6.40;;;20.20;67.10;;;;;;5073962;28;20440;-76
2021/08/14 00:21:37;;;;;;;7.50;5.80;;;20.10;67.20;;;;;;5073925;28;20433;-76
2021/08/14 00:24:05;;;;;;;6.37;5.60;;;20.10;67.20;;;;;;5073817;28;20472;-76
2021/08/14 00:26:33;;;;;;;8.65;6.70;;;20.10;67.30;;;;;;5072646;28;20434;-75
2021/08/14 00:29:00;;;;;;;10.60;5.90;;;20.10;67.10;;;;;;5073872;28;20248;-76
2021/08/14 00:31:26;;;;;;;7.40;6.10;;;20.10;67.20;;;;;;5073757;28;20449;-76
2021/08/14 00:33:53;;;;;;;12.90;6.17;;;20.10;67.50;;;;;;5073763;28;20472;-76
2021/08/14 00:36:20;;;;;;;10.03;5.90;;;20.00;67.40;;;;;;5073770;28;20472;-75
2021/08/14 00:38:46;;;;;;;8.23;6.67;;;20.00;67.40;;;;;;5073732;28;20447;-76
2021/08/14 00:41:13;;;;;;;11.93;6.80;;;20.00;67.60;;;;;;5073690;28;20445;-76
2021/08/14 00:43:41;;;;;;;9.70;6.50;;;19.90;67.80;;;;;;5073579;28;20476;-76
2021/08/14 00:46:08;;;;;;;10.97;7.00;;;19.90;67.70;;;;;;5073648;28;20475;-76
2021/08/14 00:48:36;;;;;;;9.53;5.87;;;19.90;67.90;;;;;;5074461;28;20843;-75
2021/08/14 00:51:02;;;;;;;10.30;6.37;;;19.80;68.00;;;;;;5074045;28;20855;-75
2021/08/14 00:53:29;;;;;;;9.50;4.97;;;19.80;68.20;;;;;;5073587;28;20440;-75
2021/08/14 00:55:56;;;;;;;9.37;6.80;;;19.70;68.10;;;;;;5073366;28;20448;-75
2021/08/14 00:58:24;;;;;;;6.10;5.00;;;19.70;68.10;;;;;;5073299;28;20445;-75
2021/08/14 01:00:52;;;;;;;9.27;5.90;;;19.70;68.30;;;;;;5072983;28;20468;-75
2021/08/14 01:03:19;;;;;;;7.70;5.00;;;19.60;68.30;;;;;;5073361;28;20551;-75
2021/08/14 01:05:47;;;;;;;8.87;5.70;;;19.60;68.40;;;;;;5073508;28;20471;-75
2021/08/14 01:08:15;;;;;;;14.00;5.67;;;19.60;68.50;;;;;;5073525;28;20445;-75
2021/08/14 01:10:42;;;;;;;8.73;5.50;;;19.50;68.40;;;;;;5073419;28;20444;-75
2021/08/14 01:13:10;;;;;;;11.47;6.17;;;19.50;68.50;;;;;;5073198;28;20809;-75
2021/08/14 01:15:40;;;;;;;8.83;6.57;;;19.50;68.70;;;;;;5073261;28;20448;-75
2021/08/14 01:18:11;;;;;;;8.40;6.20;;;19.50;69.10;;;;;;5073316;28;20472;-75
2021/08/14 01:20:38;;;;;;;11.50;6.10;;;19.40;69.10;;;;;;5073352;28;20520;-75
2021/08/14 01:23:05;;;;;;;10.83;6.37;;;19.40;69.30;;;;;;5072875;28;20457;-75
2021/08/14 01:25:32;;;;;;;8.80;5.70;;;19.40;69.40;;;;;;5073257;28;20855;-75
2021/08/14 01:28:00;;;;;;;11.40;5.83;;;19.30;69.50;;;;;;5073122;28;20472;-75
2021/08/14 01:30:27;;;;;;;9.10;6.50;;;19.30;69.50;;;;;;5072838;28;20961;-75
2021/08/14 01:32:53;;;;;;;14.20;6.60;;;19.30;69.50;;;;;;5073172;28;20466;-75
2021/08/14 01:35:20;;;;;;;13.33;5.80;;;19.30;69.60;;;;;;5073125;28;20447;-75
2021/08/14 01:37:47;;;;;;;13.43;5.97;;;19.30;69.60;;;;;;5072727;28;20970;-75
2021/08/14 01:40:14;;;;;;;9.27;6.10;;;19.20;69.40;;;;;;5073109;28;20448;-75
2021/08/14 01:42:40;;;;;;;9.73;6.17;;;19.30;69.80;;;;;;5072981;28;20467;-75
2021/08/14 01:45:09;;;;;;;20.80;5.93;;;19.20;69.70;;;;;;5073084;28;20452;-75
2021/08/14 01:47:36;;;;;;;13.87;7.70;;;19.20;69.70;;;;;;5073069;28;20495;-75
2021/08/14 01:50:03;;;;;;;12.67;8.87;;;19.20;69.60;;;;;;5073184;28;20445;-75
2021/08/14 01:52:30;;;;;;;12.00;8.47;;;19.20;70.40;;;;;;5073110;28;20441;-76
2021/08/14 01:54:57;;;;;;;15.83;10.33;;;19.20;69.60;;;;;;5073077;28;20441;-75
2021/08/14 01:57:23;;;;;;;26.47;20.63;;;19.20;69.70;;;;;;5072975;28;20537;-75
2021/08/14 01:59:50;;;;;;;32.47;22.57;;;19.20;69.80;;;;;;5072710;28;20453;-75
2021/08/14 02:02:18;;;;;;;39.13;33.03;;;19.20;70.10;;;;;;5072566;28;20957;-75
2021/08/14 02:04:45;;;;;;;27.83;23.23;;;19.10;70.00;;;;;;5072893;28;20476;-75
2021/08/14 02:07:12;;;;;;;30.90;22.63;;;19.10;70.10;;;;;;5073787;28;20464;-76
2021/08/14 02:09:38;;;;;;;20.43;10.33;;;19.10;70.40;;;;;;5076456;28;20490;-75
2021/08/14 02:12:06;;;;;;;14.90;8.17;;;19.00;70.30;;;;;;5076551;28;20479;-75
2021/08/14 02:14:32;;;;;;;12.90;7.80;;;19.00;70.10;;;;;;5076148;28;20930;-76
2021/08/14 02:16:59;;;;;;;21.17;8.53;;;18.90;70.10;;;;;;5076456;28;20468;-75
2021/08/14 02:19:27;;;;;;;19.53;7.47;;;18.90;70.30;;;;;;5076455;28;20445;-75
2021/08/14 02:21:54;;;;;;;19.47;8.47;;;18.90;70.60;;;;;;5076499;28;20447;-75
2021/08/14 02:24:21;;;;;;;13.37;6.43;;;18.90;70.70;;;;;;5076279;28;20483;-75
2021/08/14 02:26:47;;;;;;;12.17;6.00;;;18.90;70.60;;;;;;5076059;28;20974;-75
2021/08/14 02:29:14;;;;;;;14.97;7.10;;;18.90;70.60;;;;;;5076367;28;20471;-75
2021/08/14 02:31:41;;;;;;;14.20;7.40;;;18.90;70.60;;;;;;5076251;28;20444;-75
2021/08/14 02:34:07;;;;;;;13.10;6.47;;;18.90;70.60;;;;;;5076226;28;20436;-75
2021/08/14 02:36:35;;;;;;;16.50;6.77;;;18.80;70.50;;;;;;5076124;28;20475;-75
2021/08/14 02:39:02;;;;;;;16.27;6.60;;;18.80;70.60;;;;;;5076339;28;20444;-75
2021/08/14 02:41:29;;;;;;;16.27;6.80;;;18.80;70.80;;;;;;5076279;28;20519;-75
2021/08/14 02:43:56;;;;;;;10.20;5.77;;;18.70;70.80;;;;;;5076291;28;20851;-75
2021/08/14 02:46:23;;;;;;;12.57;5.77;;;18.70;70.80;;;;;;5076265;28;20533;-75
2021/08/14 02:48:50;;;;;;;13.23;5.70;;;18.70;70.70;;;;;;5076199;28;20849;-75
2021/08/14 02:51:17;;;;;;;12.57;6.27;;;18.60;70.60;;;;;;5076213;28;20452;-75
2021/08/14 02:53:45;;;;;;;16.30;6.60;;;18.60;70.90;;;;;;5075883;28;20855;-75
2021/08/14 02:56:11;;;;;;;16.30;5.53;;;18.60;71.00;;;;;;5076171;28;20469;-75
2021/08/14 02:58:38;;;;;;;9.40;5.17;;;18.60;71.10;;;;;;5075941;28;20519;-74
2021/08/14 03:01:05;;;;;;;13.70;6.53;;;18.60;71.30;;;;;;5076237;28;20428;-75
2021/08/14 03:03:31;;;;;;;13.50;6.73;;;18.50;71.50;;;;;;5076009;28;20476;-75
2021/08/14 03:05:58;;;;;;;10.43;5.73;;;18.50;71.50;;;;;;5075756;28;20955;-75
2021/08/14 03:08:25;;;;;;;12.23;6.30;;;18.50;71.60;;;;;;5076047;28;20453;-75
2021/08/14 03:10:53;;;;;;;12.50;6.00;;;18.50;71.50;;;;;;5076190;28;20441;-75
2021/08/14 03:13:19;;;;;;;10.87;5.40;;;18.50;71.60;;;;;;5075557;28;20953;-75
2021/08/14 03:15:46;;;;;;;10.13;5.27;;;18.50;71.60;;;;;;5076280;28;20451;-75
2021/08/14 03:18:13;;;;;;;16.67;6.57;;;18.50;71.60;;;;;;5076264;28;20479;-75
2021/08/14 03:20:40;;;;;;;11.43;6.30;;;18.50;71.70;;;;;;5076101;28;20449;-75
2021/08/14 03:23:06;;;;;;;15.07;6.50;;;18.50;71.60;;;;;;5076589;28;20819;-75
2021/08/14 03:25:33;;;;;;;9.83;6.87;;;18.50;71.70;;;;;;5077354;28;20484;-75
2021/08/14 03:28:01;;;;;;;10.80;6.23;;;18.50;71.70;;;;;;5077320;28;20465;-75
2021/08/14 03:30:28;;;;;;;12.60;6.03;;;18.50;72.70;;;;;;5076586;28;20943;-75
2021/08/14 03:32:54;;;;;;;9.70;6.60;;;18.40;71.80;;;;;;5076860;28;20452;-75
2021/08/14 03:35:21;;;;;;;14.77;7.57;;;18.40;71.70;;;;;;5076951;28;20433;-75
2021/08/14 03:37:48;;;;;;;13.97;7.20;;;18.40;71.90;;;;;;5077547;28;20797;-75
2021/08/14 03:40:15;;;;;;;10.87;6.60;;;18.40;72.10;;;;;;5077214;28;20818;-75
2021/08/14 03:42:42;;;;;;;9.40;5.60;;;18.40;72.30;;;;;;5077224;28;20445;-75
2021/08/14 03:45:10;;;;;;;8.87;4.97;;;18.40;72.20;;;;;;5076032;28;20990;-75
2021/08/14 03:47:37;;;;;;;13.90;6.07;;;18.30;72.40;;;;;;5076636;28;20475;-75
2021/08/14 03:50:06;;;;;;;10.07;5.67;;;18.30;72.50;;;;;;5078035;28;20449;-75
2021/08/14 03:52:32;;;;;;;10.63;6.80;;;18.30;72.50;;;;;;5077131;28;20449;-75
2021/08/14 03:54:59;;;;;;;13.70;6.20;;;18.20;72.40;;;;;;5076694;28;20452;-75
2021/08/14 03:57:26;;;;;;;8.70;6.70;;;18.20;72.60;;;;;;5076949;28;20464;-75
2021/08/14 03:59:53;;;;;;;9.30;5.80;;;18.20;72.50;;;;;;5076889;28;20461;-75
2021/08/14 04:02:21;;;;;;;10.47;5.87;;;18.20;72.60;;;;;;5077196;28;20452;-75
2021/08/14 04:04:48;;;;;;;10.70;6.43;;;18.20;72.70;;;;;;5077143;28;20480;-75
2021/08/14 04:07:15;;;;;;;7.60;5.33;;;18.20;72.70;;;;;;5077411;28;20464;-75
2021/08/14 04:09:41;;;;;;;12.00;6.23;;;18.20;72.70;;;;;;5076871;28;20440;-75
2021/08/14 04:12:08;;;;;;;9.27;5.70;;;18.20;72.60;;;;;;5077428;28;20847;-75
2021/08/14 04:14:36;;;;;;;8.70;5.13;;;18.20;72.60;;;;;;5077751;28;20440;-75
2021/08/14 04:17:03;;;;;;;9.73;5.53;;;18.10;72.50;;;;;;5077329;28;20460;-75
2021/08/14 04:19:31;;;;;;;10.20;6.17;;;18.10;72.60;;;;;;5078553;28;20444;-75
2021/08/14 04:21:58;;;;;;;13.00;5.50;;;18.10;72.60;;;;;;5077688;28;20444;-75
2021/08/14 04:24:24;;;;;;;6.50;5.10;;;18.00;72.80;;;;;;5077500;28;20989;-75
2021/08/14 04:26:51;;;;;;;8.60;5.90;;;18.00;72.80;;;;;;5078011;28;20468;-75
2021/08/14 04:29:18;;;;;;;9.70;4.90;;;17.90;72.70;;;;;;5077874;28;20455;-75
2021/08/14 04:31:45;;;;;;;7.60;5.83;;;17.90;72.90;;;;;;5078332;28;20448;-75
2021/08/14 04:34:11;;;;;;;8.37;5.83;;;17.80;73.00;;;;;;5078938;28;20444;-75
2021/08/14 04:36:39;;;;;;;11.83;5.63;;;17.80;73.30;;;;;;5078435;28;20468;-75
2021/08/14 04:39:06;;;;;;;17.37;7.70;;;17.70;73.40;;;;;;5079047;28;20518;-75
2021/08/14 04:41:33;;;;;;;11.27;8.00;;;17.80;73.90;;;;;;5078732;28;20435;-75
2021/08/14 04:43:59;;;;;;;8.20;6.20;;;17.80;75.10;;;;;;5078577;28;20487;-75
2021/08/14 04:46:26;;;;;;;11.50;6.17;;;17.90;75.80;;;;;;5079861;28;20460;-75
2021/08/14 04:48:53;;;;;;;15.57;6.17;;;17.90;75.40;;;;;;5079890;28;20814;-75
2021/08/14 04:51:19;;;;;;;11.33;6.97;;;17.80;75.00;;;;;;5080782;28;20448;-75
2021/08/14 04:53:47;;;;;;;15.43;6.30;;;17.90;74.90;;;;;;5081025;28;20448;-75
2021/08/14 04:56:14;;;;;;;12.30;6.43;;;17.90;74.70;;;;;;5080676;28;20479;-75
2021/08/14 04:58:41;;;;;;;13.23;5.90;;;17.90;74.80;;;;;;5082570;28;20806;-75
2021/08/14 05:01:07;;;;;;;9.20;6.27;;;17.90;74.90;;;;;;5093595;28;20516;-75
2021/08/14 05:03:34;;;;;;;11.30;6.60;;;17.90;75.30;;;;;;5093462;28;20505;-75
2021/08/14 05:06:01;;;;;;;15.37;8.77;;;17.90;76.20;;;;;;5093761;28;20504;-75
2021/08/14 05:08:28;;;;;;;13.30;6.57;;;18.00;77.10;;;;;;5093886;28;20445;-75
2021/08/14 05:10:56;;;;;;;15.03;6.87;;;18.00;77.70;;;;;;5093390;28;20472;-75
2021/08/14 05:13:23;;;;;;;14.53;6.40;;;18.00;77.80;;;;;;5093193;28;20451;-75
2021/08/14 05:15:49;;;;;;;11.00;6.47;;;18.00;77.60;;;;;;5093604;28;20444;-75
2021/08/14 05:18:16;;;;;;;12.30;7.70;;;18.10;77.80;;;;;;5093720;28;20439;-75
2021/08/14 05:20:43;;;;;;;11.03;7.30;;;18.10;77.80;;;;;;5093840;28;20467;-75
2021/08/14 05:23:10;;;;;;;10.33;6.60;;;18.20;78.20;;;;;;5092928;28;20437;-75
2021/08/14 05:25:37;;;;;;;8.50;5.87;;;18.20;78.30;;;;;;5092484;28;20485;-75
2021/08/14 05:28:05;;;;;;;12.10;6.57;;;18.30;78.60;;;;;;5092823;28;20470;-74
2021/08/14 05:30:32;;;;;;;10.00;6.23;;;18.30;78.90;;;;;;5092963;28;20441;-74
2021/08/14 05:32:58;;;;;;;8.97;6.20;;;18.30;79.00;;;;;;5092377;28;20451;-75
2021/08/14 05:35:26;;;;;;;13.30;6.03;;;18.30;79.00;;;;;;5092225;28;20445;-75
2021/08/14 05:37:52;;;;;;;11.47;6.17;;;18.30;79.20;;;;;;5092360;28;20805;-75
2021/08/14 05:40:19;;;;;;;10.67;7.33;;;18.40;79.20;;;;;;5091195;28;20446;-75
2021/08/14 05:42:46;;;;;;;11.57;7.27;;;18.40;79.20;;;;;;5091904;28;20444;-75
2021/08/14 05:45:14;;;;;;;10.63;7.23;;;18.40;79.50;;;;;;5094113;28;20483;-75
2021/08/14 05:47:41;;;;;;;15.83;6.43;;;18.40;79.80;;;;;;5093983;28;20467;-75
2021/08/14 05:50:08;;;;;;;12.33;6.50;;;18.50;79.60;;;;;;5093807;28;20444;-75
2021/08/14 05:52:35;;;;;;;12.37;6.53;;;18.50;79.70;;;;;;5093354;28;20437;-75
2021/08/14 05:55:02;;;;;;;12.13;6.90;;;18.50;80.20;;;;;;5092751;28;20448;-75
2021/08/14 05:57:29;;;;;;;15.50;7.80;;;18.60;80.50;;;;;;5093428;28;20471;-75
2021/08/14 05:59:55;;;;;;;14.03;6.93;;;18.60;80.30;;;;;;5093202;28;20452;-75
2021/08/14 06:02:23;;;;;;;17.37;7.60;;;18.60;79.90;;;;;;5085019;28;20448;-76
2021/08/14 06:04:50;;;;;;;13.90;7.50;;;18.70;80.70;;;;;;5090867;28;20480;-75
2021/08/14 06:07:17;;;;;;;9.77;6.50;;;18.70;80.60;;;;;;5083150;28;20449;-75
2021/08/14 06:09:43;;;;;;;12.33;8.00;;;18.70;80.60;;;;;;5080942;28;20455;-75
2021/08/14 06:12:11;;;;;;;13.40;8.00;;;18.70;80.80;;;;;;5086982;28;20451;-75
2021/08/14 06:14:38;;;;;;;14.63;8.53;;;18.70;80.60;;;;;;5084155;28;20459;-75
2021/08/14 06:17:05;;;;;;;11.63;8.10;;;18.70;81.70;;;;;;5078804;28;20889;-75
2021/08/14 06:19:34;;;;;;;14.10;7.73;;;18.80;81.30;;;;;;5083163;28;20905;-76
2021/08/14 06:22:00;;;;;;;14.13;6.60;;;18.80;81.90;;;;;;5076945;28;20424;-76
2021/08/14 06:24:27;;;;;;;12.10;8.37;;;18.90;80.90;;;;;;5076435;28;20444;-76
2021/08/14 06:26:54;;;;;;;11.93;7.43;;;18.90;79.80;;;;;;5083913;28;20464;-76
2021/08/14 06:29:21;;;;;;;12.57;8.03;;;18.90;79.40;;;;;;5085695;28;20463;-76
2021/08/14 06:31:47;;;;;;;14.67;8.13;;;19.00;79.70;;;;;;5084388;28;20429;-76
2021/08/14 06:34:14;;;;;;;11.10;7.60;;;19.00;79.90;;;;;;5085917;28;20820;-76
2021/08/14 06:36:42;;;;;;;16.27;8.30;;;19.00;78.50;;;;;;5084897;28;20480;-76
2021/08/14 06:39:09;;;;;;;14.67;8.13;;;19.10;78.20;;;;;;5084732;28;20452;-76
2021/08/14 06:41:36;;;;;;;11.07;7.47;;;19.20;77.40;;;;;;5086334;28;20966;-75
2021/08/14 06:44:03;;;;;;;13.87;6.23;;;19.20;76.90;;;;;;5081974;28;20449;-75
2021/08/14 06:46:30;;;;;;;11.70;6.20;;;19.20;76.70;;;;;;5081995;28;20484;-75
2021/08/14 06:48:56;;;;;;;13.53;7.77;;;19.30;76.60;;;;;;5083502;28;20456;-76
2021/08/14 06:51:23;;;;;;;12.30;7.17;;;19.30;76.80;;;;;;5086714;28;20449;-75
2021/08/14 06:53:51;;;;;;;13.07;7.27;;;19.40;76.90;;;;;;5085885;28;20445;-75
2021/08/14 06:56:18;;;;;;;16.67;7.40;;;19.40;76.70;;;;;;5084669;28;20465;-75
2021/08/14 06:58:45;;;;;;;9.40;6.87;;;19.50;75.70;;;;;;5083397;28;20451;-75
2021/08/14 07:01:12;;;;;;;12.33;7.20;;;19.50;74.90;;;;;;5082427;28;20429;-75
2021/08/14 07:03:38;;;;;;;15.53;6.13;;;19.60;76.00;;;;;;5083497;28;20453;-75
2021/08/14 07:06:05;;;;;;;12.13;6.20;;;19.70;75.70;;;;;;5084156;28;20499;-75
2021/08/14 07:08:32;;;;;;;13.80;6.80;;;19.90;74.80;;;;;;5083873;28;20414;-76
2021/08/14 07:11:00;;;;;;;14.40;6.27;;;19.90;74.40;;;;;;5082612;28;20452;-76
2021/08/14 07:13:27;;;;;;;10.47;6.33;;;20.10;74.60;;;;;;5079927;28;20447;-75
2021/08/14 07:15:54;;;;;;;14.87;5.87;;;20.20;72.90;;;;;;5077414;28;20451;-75
2021/08/14 07:18:20;;;;;;;10.23;6.07;;;20.30;72.80;;;;;;5077688;28;20452;-76
2021/08/14 07:20:47;;;;;;;8.97;5.33;;;20.40;70.60;;;;;;5077135;28;20467;-76
2021/08/14 07:23:14;;;;;;;14.40;6.47;;;20.60;70.60;;;;;;5077058;28;20451;-76
2021/08/14 07:25:40;;;;;;;11.43;5.97;;;20.80;70.30;;;;;;5077420;28;20860;-76
2021/08/14 07:28:08;;;;;;;9.97;6.03;;;20.90;70.20;;;;;;5077705;28;20472;-76
2021/08/14 07:30:35;;;;;;;12.33;5.33;;;21.10;70.40;;;;;;5077053;28;20451;-76
2021/08/14 07:33:02;;;;;;;11.30;5.60;;;21.30;67.60;;;;;;5076586;28;20444;-76
2021/08/14 07:35:29;;;;;;;10.77;5.03;;;21.40;65.70;;;;;;5075846;28;20440;-76
2021/08/14 07:37:55;;;;;;;10.10;4.70;;;21.60;66.70;;;;;;5075867;28;20464;-76
2021/08/14 07:40:24;;;;;;;9.93;4.30;;;21.60;64.50;;;;;;5075254;28;20946;-75
2021/08/14 07:42:51;;;;;;;11.70;4.57;;;21.80;63.00;;;;;;5076118;28;20445;-76
2021/08/14 07:45:20;;;;;;;8.83;4.10;;;21.80;62.70;;;;;;5075208;28;20465;-76
2021/08/14 07:47:49;;;;;;;7.47;4.40;;;21.90;61.10;;;;;;5079328;28;20477;-76
2021/08/14 07:50:20;;;;;;;11.70;4.77;;;22.00;59.70;;;;;;5077591;28;20465;-76
2021/08/14 07:52:47;;;;;;;6.83;3.60;;;22.20;59.50;;;;;;5077433;28;20939;-76
2021/08/14 07:55:14;;;;;;;8.03;3.30;;;22.30;59.80;;;;;;5077653;28;20482;-76
2021/08/14 07:57:41;;;;;;;8.50;3.93;;;22.50;58.40;;;;;;5076525;28;20476;-76
2021/08/14 08:00:10;;;;;;;9.03;3.80;;;22.70;58.60;;;;;;5076704;28;20869;-76
2021/08/14 08:02:39;;;;;;;6.70;3.13;;;22.80;58.10;;;;;;5076473;28;20949;-76
2021/08/14 08:05:07;;;;;;;7.13;3.10;;;23.00;57.20;;;;;;5075767;28;20475;-76
2021/08/14 08:07:35;;;;;;;5.33;3.17;;;23.20;55.30;;;;;;5076095;28;20467;-76
2021/08/14 08:10:03;;;;;;;7.00;2.77;;;23.20;55.20;;;;;;5075418;28;20445;-76
2021/08/14 08:12:30;;;;;;;8.83;3.37;;;23.40;55.80;;;;;;5075951;28;20451;-76
2021/08/14 08:14:56;;;;;;;9.37;3.20;;;23.50;54.90;;;;;;5075322;28;20448;-76
2021/08/14 08:17:23;;;;;;;8.57;3.60;;;23.60;53.60;;;;;;5075154;28;20472;-76
2021/08/14 08:19:51;;;;;;;9.77;3.53;;;23.80;53.90;;;;;;5077237;28;20452;-76
2021/08/14 08:22:18;;;;;;;7.43;3.30;;;23.80;52.60;;;;;;5075663;28;20452;-76
2021/08/14 08:24:45;;;;;;;6.73;3.33;;;23.80;51.80;;;;;;5075640;28;20452;-77
2021/08/14 08:27:11;;;;;;;7.10;3.70;;;23.90;51.70;;;;;;5075825;28;20515;-76
2021/08/14 08:29:39;;;;;;;9.67;4.17;;;24.00;53.10;;;;;;5076501;28;20457;-76
2021/08/14 08:32:07;;;;;;;9.70;3.90;;;24.10;53.00;;;;;;5076913;28;20476;-76
2021/08/14 08:34:34;;;;;;;8.53;3.70;;;24.30;51.50;;;;;;5077010;28;20433;-76
2021/08/14 08:37:04;;;;;;;8.80;3.83;;;24.50;49.00;;;;;;5074660;28;20468;-76
2021/08/14 08:39:32;;;;;;;11.77;3.83;;;24.50;49.90;;;;;;5074848;28;20451;-76
2021/08/14 08:41:59;;;;;;;5.80;3.20;;;24.60;49.30;;;;;;5075074;28;20498;-76
2021/08/14 08:44:27;;;;;;;7.90;3.53;;;24.70;49.70;;;;;;5074260;28;20801;-76
2021/08/14 08:46:53;;;;;;;8.10;3.50;;;24.80;49.00;;;;;;5075153;28;20483;-77
2021/08/14 08:49:21;;;;;;;5.13;3.00;;;25.00;50.40;;;;;;5075555;28;20456;-77
2021/08/14 08:51:48;;;;;;;8.00;3.23;;;24.90;46.40;;;;;;5074390;28;20527;-76
2021/08/14 08:54:17;;;;;;;6.73;2.90;;;25.00;46.60;;;;;;5074551;28;20444;-76
2021/08/14 08:56:44;;;;;;;10.60;2.90;;;24.90;46.20;;;;;;5074192;28;20465;-76
2021/08/14 08:59:12;;;;;;;8.90;3.60;;;24.80;45.70;;;;;;5073902;28;20456;-76
2021/08/14 09:01:38;;;;;;;6.03;3.73;;;24.90;47.80;;;;;;5074662;28;20449;-76
2021/08/14 09:04:26;;;;;;;6.77;3.00;;;24.80;47.40;;;;;;5074310;28;20476;-76
2021/08/14 09:06:53;;;;;;;7.13;3.20;;;24.90;47.60;;;;;;5074226;28;20489;-77
2021/08/14 09:09:27;;;;;;;10.70;2.90;;;25.00;48.90;;;;;;5074029;28;20968;-76
2021/08/14 09:11:55;;;;;;;9.17;3.70;;;25.20;48.00;;;;;;5074321;28;20428;-77
2021/08/14 09:14:22;;;;;;;6.07;3.60;;;25.40;48.40;;;;;;5074592;28;20535;-76
2021/08/14 09:17:04;;;;;;;8.13;2.47;;;25.70;47.80;;;;;;5076423;28;20468;-76
2021/08/14 09:19:31;;;;;;;9.00;3.10;;;25.70;45.50;;;;;;5078410;28;20499;-77
2021/08/14 09:22:11;;;;;;;7.27;3.27;;;25.70;44.50;;;;;;5078264;28;20444;-76
2021/08/14 09:24:39;;;;;;;7.10;3.00;;;25.80;45.00;;;;;;5078402;28;20428;-77
2021/08/14 09:27:06;;;;;;;6.43;2.80;;;25.90;46.00;;;;;;5077705;28;21017;-77
2021/08/14 09:29:35;;;;;;;5.83;2.80;;;26.00;46.20;;;;;;5079563;28;20441;-76
2021/08/14 09:32:03;;;;;;;5.37;3.40;;;26.30;44.40;;;;;;5078899;28;20425;-77
2021/08/14 09:34:30;;;;;;;5.90;2.70;;;26.50;42.00;;;;;;5078761;28;20447;-77
2021/08/14 09:37:02;;;;;;;7.33;3.10;;;26.70;42.20;;;;;;5078658;28;20468;-77
2021/08/14 09:39:29;;;;;;;8.53;3.07;;;26.90;42.80;;;;;;5078855;28;20955;-71
2021/08/14 09:42:05;;;;;;;5.77;3.17;;;27.20;43.60;;;;;;5077132;28;20444;-71
2021/08/14 09:44:32;;;;;;;6.17;2.87;;;27.40;43.00;;;;;;5077219;28;20443;-71
2021/08/14 09:46:59;;;;;;;6.87;3.20;;;27.50;39.50;;;;;;5076578;28;20850;-71
2021/08/14 09:49:26;;;;;;;7.23;3.10;;;27.40;40.90;;;;;;5076989;28;20962;-71
2021/08/14 09:51:53;;;;;;;6.10;3.03;;;27.30;40.10;;;;;;5080054;28;20440;-71
2021/08/14 09:54:20;;;;;;;9.87;2.83;;;27.40;41.50;;;;;;5078867;28;20433;-71
2021/08/14 09:56:48;;;;;;;9.40;3.50;;;27.40;41.10;;;;;;5077092;28;20456;-71
2021/08/14 09:59:19;;;;;;;6.63;3.67;;;27.60;40.70;;;;;;5076515;28;20460;-71
2021/08/14 10:01:47;;;;;;;7.70;3.13;;;27.70;41.50;;;;;;5077181;28;20778;-71
2021/08/14 10:04:18;;;;;;;9.70;3.47;;;27.80;41.50;;;;;;5077022;28;20452;-71
2021/08/14 10:06:47;;;;;;;8.30;3.67;;;28.10;41.70;;;;;;5076270;28;20491;-71
2021/08/14 10:09:15;;;;;;;5.37;3.30;;;28.30;40.10;;;;;;5076708;28;20484;-71
2021/08/14 10:11:42;;;;;;;5.83;2.80;;;28.60;41.50;;;;;;5076959;28;20498;-71
2021/08/14 10:14:10;;;;;;;4.67;2.83;;;28.60;37.50;;;;;;5076785;28;20453;-71
2021/08/14 10:16:38;;;;;;;6.70;3.13;;;28.70;37.50;;;;;;5077078;28;20894;-72
2021/08/14 10:19:06;;;;;;;7.30;3.07;;;28.70;38.50;;;;;;5076957;28;20441;-71
2021/08/14 10:21:32;;;;;;;6.30;3.60;;;29.00;37.30;;;;;;5076811;28;20449;-71
2021/08/14 10:23:59;;;;;;;6.10;3.40;;;29.20;36.70;;;;;;5077107;28;20441;-72
2021/08/14 10:26:29;;;;;;;4.77;2.77;;;29.70;37.40;;;;;;5077009;28;20487;-72
2021/08/14 10:28:57;;;;;;;8.13;3.20;;;30.10;34.60;;;;;;5075092;28;20440;-72
2021/08/14 10:31:45;;;;;;;4.47;2.80;;;30.40;34.10;;;;;;5076157;28;20461;-72
2021/08/14 10:34:34;;;;;;;3.97;2.83;;;30.80;33.10;;;;;;5076029;28;20476;-72
2021/08/14 10:37:02;;;;;;;4.77;2.87;;;31.00;34.00;;;;;;5075923;28;20452;-72
2021/08/14 10:39:31;;;;;;;8.33;3.20;;;31.30;33.90;;;;;;5075985;28;20440;-72
2021/08/14 10:42:00;;;;;;;8.17;3.13;;;31.70;30.90;;;;;;5075953;28;20440;-72
2021/08/14 10:44:56;;;;;;;6.17;3.10;;;32.10;30.60;;;;;;5075573;28;20447;-72
2021/08/14 10:47:50;;;;;;;2.90;2.40;;;32.80;29.90;;;;;;5062388;28;20491;-72
2021/08/14 10:50:52;;;;;;;6.63;3.13;;;33.30;29.40;;;;;;5061080;28;20456;-72
2021/08/14 10:53:22;;;;;;;4.93;2.90;;;33.60;28.20;;;;;;5075873;28;20420;-72
2021/08/14 10:55:51;;;;;;;5.80;2.70;;;33.90;27.50;;;;;;5075758;28;20433;-72
2021/08/14 10:58:20;;;;;;;5.20;3.00;;;34.40;27.30;;;;;;5075577;28;20863;-72
2021/08/14 11:00:47;;;;;;;9.50;3.60;;;34.90;25.70;;;;;;5075239;28;20448;-72
2021/08/14 11:03:15;;;;;;;6.50;3.00;;;35.50;25.30;;;;;;5075495;28;20439;-72
2021/08/14 11:05:45;;;;;;;7.80;3.40;;;36.00;25.40;;;;;;5075609;28;20535;-72
2021/08/14 11:08:27;;;;;;;6.83;3.30;;;36.20;25.40;;;;;;5075369;28;20471;-72
2021/08/14 11:10:54;;;;;;;6.43;3.23;;;36.60;25.20;;;;;;5075075;28;20983;-72
2021/08/14 11:14:12;;;;;;;5.07;2.70;;;37.00;25.10;;;;;;5075553;28;20236;-72
2021/08/14 11:16:57;;;;;;;5.90;2.90;;;37.20;23.30;;;;;;5075176;28;20218;-72
2021/08/14 11:19:45;;;;;;;5.63;2.93;;;37.30;22.30;;;;;;5075325;28;20229;-72
2021/08/14 11:22:21;;;;;;;4.13;3.00;;;37.60;23.00;;;;;;5075189;28;20190;-72
2021/08/14 11:24:48;;;;;;;4.53;2.80;;;37.70;23.10;;;;;;5075216;28;20190;-72
2021/08/14 11:27:24;;;;;;;4.78;3.38;;;37.60;22.30;;;;;;5074882;28;20226;-72
2021/08/14 11:29:53;;;;;;;8.57;3.50;;;37.50;22.90;;;;;;5075058;28;20186;-72
2021/08/14 11:32:19;;;;;;;7.63;3.20;;;37.50;24.00;;;;;;5074975;28;20209;-72
2021/08/14 11:34:50;;;;;;;6.50;2.37;;;37.60;23.70;;;;;;5075084;28;20206;-72
2021/08/14 11:37:17;;;;;;;5.15;2.67;;;37.90;24.20;;;;;;5075066;28;20648;-72
2021/08/14 11:39:44;;;;;;;4.05;2.55;;;38.00;22.80;;;;;;5073929;28;20186;-72
2021/08/14 11:42:12;;;;;;;4.30;2.47;;;38.00;22.40;;;;;;5074888;28;20198;-72
2021/08/14 11:44:40;;;;;;;5.22;2.47;;;38.00;22.60;;;;;;5074789;28;20216;-72
2021/08/14 11:47:09;;;;;;;6.70;3.20;;;38.20;23.00;;;;;;5074273;28;20714;-73
2021/08/14 11:49:53;;;;;;;4.35;2.45;;;38.10;22.00;;;;;;5074619;28;20202;-72
2021/08/14 11:52:22;;;;;;;7.03;3.25;;;38.10;22.70;;;;;;5074516;28;20198;-73
2021/08/14 11:54:56;;;;;;;5.53;2.90;;;38.20;22.50;;;;;;5074572;28;20206;-72
2021/08/14 11:57:28;;;;;;;4.60;2.90;;;38.40;22.40;;;;;;5074506;28;20708;-72
2021/08/14 11:59:54;;;;;;;4.53;2.85;;;38.60;22.30;;;;;;5074304;28;20237;-72
2021/08/14 12:02:25;;;;;;;5.63;2.97;;;38.60;22.40;;;;;;5074150;28;20667;-72
2021/08/14 12:04:53;;;;;;;5.53;2.63;;;38.90;22.90;;;;;;5074451;28;20190;-73
2021/08/14 12:07:20;;;;;;;5.50;2.70;;;39.30;22.30;;;;;;5074162;28;20230;-73
2021/08/14 12:09:48;;;;;;;4.20;3.10;;;39.80;22.10;;;;;;5074222;28;20220;-73
2021/08/14 12:12:17;;;;;;;4.72;2.92;;;39.90;21.30;;;;;;5074764;28;20206;-73
2021/08/14 12:14:44;;;;;;;4.55;2.83;;;40.00;21.10;;;;;;5074185;28;20296;-73
2021/08/14 12:17:11;;;;;;;3.70;2.88;;;39.90;20.40;;;;;;5074061;28;20228;-73
2021/08/14 12:19:48;;;;;;;4.80;3.33;;;39.70;21.50;;;;;;5074192;28;20575;-73
2021/08/14 12:22:17;;;;;;;5.90;3.38;;;39.90;22.10;;;;;;5074041;28;20189;-73
2021/08/14 12:24:45;;;;;;;5.13;2.85;;;40.20;22.30;;;;;;5073963;28;20201;-73
2021/08/14 12:27:26;;;;;;;4.38;3.10;;;40.00;20.60;;;;;;5073790;28;20218;-73
2021/08/14 12:29:53;;;;;;;3.28;2.83;;;40.10;21.50;;;;;;5073864;28;20198;-73
2021/08/14 12:32:20;;;;;;;6.57;3.08;;;40.10;21.50;;;;;;5073851;28;20209;-73
2021/08/14 12:34:46;;;;;;;4.13;2.60;;;40.30;21.50;;;;;;5073778;28;20202;-73
2021/08/14 12:37:16;;;;;;;7.32;3.08;;;40.50;20.90;;;;;;5073728;28;20221;-73
2021/08/14 12:39:48;;;;;;;4.22;2.70;;;40.90;21.30;;;;;;5073450;28;20676;-73
2021/08/14 12:42:19;;;;;;;3.88;2.92;;;41.00;20.60;;;;;;5073821;28;20190;-73
2021/08/14 12:44:47;;;;;;;6.10;2.65;;;40.90;20.50;;;;;;5073806;28;20236;-73
2021/08/14 12:47:14;;;;;;;5.43;3.10;;;41.10;21.20;;;;;;5073608;28;20234;-73
2021/08/14 12:49:40;;;;;;;4.28;2.58;;;41.30;20.10;;;;;;5073839;28;20522;-73